createdAt,value
2023-05-15T00:01:34.165Z,12.30
2023-05-15T00:04:02.480Z,12.45
2023-05-15T00:06:30.492Z,13.07
2023-05-15T00:08:58.573Z,13.00
2023-05-15T00:11:28.079Z,13.05
2023-05-15T00:13:56.121Z,13.82
2023-05-15T00:16:24.753Z,12.50
2023-05-15T00:18:52.960Z,13.80
2023-05-15T00:21:20.987Z,14.23
2023-05-15T00:23:48.891Z,13.68
2023-05-15T00:26:16.774Z,12.98
2023-05-15T00:28:44.643Z,12.70
2023-05-15T00:31:13.414Z,13.40
2023-05-15T00:33:41.365Z,13.52
2023-05-15T00:36:10.938Z,12.25
2023-05-15T00:38:39.097Z,13.02
2023-05-15T00:41:08.159Z,13.75
2023-05-15T00:43:40.174Z,14.13
2023-05-15T00:46:09.748Z,13.18
2023-05-15T00:48:38.164Z,14.43
2023-05-15T00:51:06.186Z,13.30
2023-05-15T00:53:34.268Z,12.23
2023-05-15T00:56:06.151Z,12.93
2023-05-15T00:58:35.913Z,13.93
2023-05-15T01:01:04.764Z,12.30
2023-05-15T01:03:34.379Z,12.73
2023-05-15T01:06:02.248Z,12.93
2023-05-15T01:08:46.693Z,12.23
2023-05-15T01:13:43.771Z,13.45
2023-05-15T01:16:12.057Z,14.27
2023-05-15T01:18:40.212Z,13.15
2023-05-15T01:21:36.416Z,13.85
2023-05-15T01:24:33.290Z,12.93
2023-05-15T01:27:06.852Z,12.88
2023-05-15T01:29:56.851Z,12.35
2023-05-15T01:32:28.025Z,12.77
2023-05-15T01:35:25.360Z,13.77
2023-05-15T01:38:23.806Z,12.13
2023-05-15T01:41:00.186Z,12.40
2023-05-15T01:43:32.057Z,12.55
2023-05-15T01:46:00.013Z,11.70
2023-05-15T01:48:29.483Z,11.52
2023-05-15T01:51:01.829Z,11.95
2023-05-15T01:53:34.353Z,11.77
2023-05-15T01:56:04.235Z,12.18
2023-05-15T01:58:32.798Z,12.60
2023-05-15T02:01:02.158Z,12.70
2023-05-15T02:03:36.000Z,13.18
2023-05-15T02:06:06.335Z,13.15
2023-05-15T02:08:35.515Z,13.43
2023-05-15T02:11:05.919Z,13.77
2023-05-15T02:13:35.226Z,14.43
2023-05-15T02:16:03.187Z,13.85
2023-05-15T02:18:31.167Z,13.90
2023-05-15T02:21:03.063Z,13.73
2023-05-15T02:23:31.021Z,14.30
2023-05-15T02:26:21.602Z,14.30
2023-05-15T02:29:37.180Z,14.98
2023-05-15T02:35:04.304Z,15.15
2023-05-15T02:37:35.335Z,15.95
2023-05-15T02:40:07.580Z,15.52
2023-05-15T02:42:37.015Z,13.82
2023-05-15T02:45:06.237Z,14.55
2023-05-15T02:47:35.019Z,13.90
2023-05-15T02:50:04.533Z,14.40
2023-05-15T02:52:37.701Z,14.25
2023-05-15T02:55:06.508Z,13.60
2023-05-15T02:57:34.485Z,12.30
2023-05-15T03:00:05.431Z,12.88
2023-05-15T03:02:33.376Z,12.70
2023-05-15T03:05:01.342Z,13.05
2023-05-15T03:07:29.294Z,12.75
2023-05-15T03:09:57.209Z,12.90
2023-05-15T03:12:25.145Z,13.65
2023-05-15T03:14:53.107Z,13.10
2023-05-15T03:17:21.524Z,12.57
2023-05-15T03:19:49.448Z,14.02
2023-05-15T03:22:17.535Z,13.40
2023-05-15T03:24:45.765Z,12.85
2023-05-15T03:27:13.759Z,12.80
2023-05-15T03:29:43.379Z,12.95
2023-05-15T03:32:11.588Z,12.85
2023-05-15T03:34:41.089Z,13.05
2023-05-15T03:37:09.161Z,13.55
2023-05-15T03:39:37.143Z,13.63
2023-05-15T03:42:06.059Z,12.60
2023-05-15T03:44:33.975Z,12.85
2023-05-15T03:47:01.999Z,14.05
2023-05-15T03:49:29.997Z,12.25
2023-05-15T03:51:58.072Z,12.13
2023-05-15T03:54:25.978Z,12.10
2023-05-15T03:56:54.029Z,11.40
2023-05-15T03:59:21.871Z,10.32
2023-05-15T04:02:03.365Z,9.68
2023-05-15T04:04:32.035Z,9.32
2023-05-15T04:07:00.603Z,9.50
2023-05-15T04:09:28.532Z,8.10
2023-05-15T04:11:56.496Z,7.78
2023-05-15T04:14:24.269Z,6.70
2023-05-15T04:16:52.247Z,5.63
2023-05-15T04:19:20.180Z,4.70
2023-05-15T04:21:48.229Z,3.60
2023-05-15T04:24:16.156Z,2.80
2023-05-15T04:26:44.045Z,3.25
2023-05-15T04:29:12.352Z,2.65
2023-05-15T04:31:40.405Z,3.03
2023-05-15T04:34:08.334Z,3.15
2023-05-15T04:36:36.777Z,2.97
2023-05-15T04:39:04.617Z,3.63
2023-05-15T04:41:33.507Z,4.30
2023-05-15T04:44:01.408Z,4.35
2023-05-15T04:46:29.548Z,5.40
2023-05-15T04:48:57.530Z,5.53
2023-05-15T04:51:25.446Z,5.25
2023-05-15T04:53:53.636Z,5.22
2023-05-15T04:56:21.940Z,4.95
2023-05-15T04:58:49.851Z,5.10
2023-05-15T05:01:17.725Z,5.32
2023-05-15T05:03:45.632Z,4.88
2023-05-15T05:06:13.652Z,4.53
2023-05-15T05:08:41.501Z,4.22
2023-05-15T05:11:09.406Z,4.30
2023-05-15T05:13:37.388Z,4.03
2023-05-15T05:16:05.596Z,4.63
2023-05-15T05:18:34.348Z,5.22
2023-05-15T05:21:03.373Z,4.25
2023-05-15T05:23:31.414Z,5.25
2023-05-15T05:26:00.185Z,4.85
2023-05-15T05:28:28.480Z,4.60
2023-05-15T05:30:56.390Z,5.43
2023-05-15T05:33:28.116Z,5.03
2023-05-15T05:35:56.472Z,5.28
2023-05-15T05:38:24.999Z,6.00
2023-05-15T05:40:53.078Z,5.80
2023-05-15T05:43:21.045Z,6.43
2023-05-15T05:45:48.977Z,6.55
2023-05-15T05:48:16.838Z,6.18
2023-05-15T05:50:44.699Z,6.68
2023-05-15T05:53:12.515Z,6.43
2023-05-15T05:55:40.552Z,6.90
2023-05-15T05:58:18.181Z,5.68
2023-05-15T06:00:53.108Z,6.38
2023-05-15T06:03:21.565Z,6.03
2023-05-15T06:05:49.473Z,5.63
2023-05-15T06:08:17.313Z,5.50
2023-05-15T06:10:45.733Z,4.90
2023-05-15T06:13:15.027Z,5.20
2023-05-15T06:15:43.659Z,5.63
2023-05-15T06:18:11.729Z,5.43
2023-05-15T06:20:39.790Z,5.40
2023-05-15T06:23:07.572Z,5.60
2023-05-15T06:25:35.966Z,5.43
2023-05-15T06:28:03.834Z,5.30
2023-05-15T06:30:31.788Z,6.43
2023-05-15T06:32:59.991Z,4.70
2023-05-15T06:35:28.197Z,4.57
2023-05-15T06:37:57.772Z,4.03
2023-05-15T06:40:26.820Z,3.30
2023-05-15T06:42:54.828Z,3.92
2023-05-15T06:45:22.845Z,3.03
2023-05-15T06:47:51.033Z,3.50
2023-05-15T06:50:18.879Z,3.38
2023-05-15T06:52:46.890Z,3.88
2023-05-15T06:55:14.748Z,4.28
2023-05-15T06:57:42.676Z,3.60
2023-05-15T07:00:11.654Z,3.17
2023-05-15T07:02:39.571Z,3.70
2023-05-15T07:05:09.182Z,4.22
2023-05-15T07:07:37.178Z,4.10
2023-05-15T07:10:05.549Z,3.58
2023-05-15T07:12:34.307Z,4.50
2023-05-15T07:15:02.226Z,4.88
2023-05-15T07:17:32.429Z,5.40
2023-05-15T07:20:00.316Z,5.43
2023-05-15T07:22:29.279Z,5.10
2023-05-15T07:24:57.277Z,4.85
2023-05-15T07:27:25.124Z,6.15
2023-05-15T07:29:54.166Z,6.18
2023-05-15T07:32:22.049Z,6.35
2023-05-15T07:34:49.962Z,7.03
2023-05-15T07:37:17.939Z,7.63
2023-05-15T07:39:46.714Z,7.60
2023-05-15T07:42:14.758Z,7.90
2023-05-15T07:44:44.339Z,8.27
2023-05-15T07:47:13.471Z,8.05
2023-05-15T07:49:41.341Z,8.18
2023-05-15T07:52:09.169Z,7.20
2023-05-15T07:54:37.058Z,7.38
2023-05-15T07:57:05.453Z,7.47
2023-05-15T07:59:33.368Z,7.65
2023-05-15T08:02:01.373Z,6.78
2023-05-15T08:04:29.369Z,6.47
2023-05-15T08:06:57.512Z,5.07
2023-05-15T08:09:25.374Z,5.72
2023-05-15T08:11:56.552Z,5.20
2023-05-15T08:14:24.601Z,5.03
2023-05-15T08:16:52.491Z,4.75
2023-05-15T08:19:22.282Z,5.47
2023-05-15T08:21:50.193Z,4.38
2023-05-15T08:24:18.080Z,5.07
2023-05-15T08:26:46.002Z,4.78
2023-05-15T08:29:13.949Z,4.47
2023-05-15T08:31:42.190Z,4.22
2023-05-15T08:34:10.172Z,4.70
2023-05-15T08:36:39.582Z,4.07
2023-05-15T08:39:09.367Z,4.63
2023-05-15T08:41:46.757Z,4.60
2023-05-15T08:44:15.063Z,4.45
2023-05-15T08:46:43.775Z,4.07
2023-05-15T08:49:33.702Z,4.10
2023-05-15T08:52:01.713Z,4.18
2023-05-15T08:54:30.200Z,4.80
2023-05-15T08:56:58.506Z,4.85
2023-05-15T08:59:26.671Z,4.72
2023-05-15T09:01:55.310Z,5.03
2023-05-15T09:04:23.211Z,4.88
2023-05-15T09:06:51.620Z,4.72
2023-05-15T09:09:20.849Z,4.43
2023-05-15T09:11:49.143Z,4.70
2023-05-15T09:14:17.012Z,5.47
2023-05-15T09:16:46.991Z,4.80
2023-05-15T09:19:16.087Z,4.22
2023-05-15T09:21:43.992Z,4.35
2023-05-15T09:24:25.528Z,4.57
2023-05-15T09:27:07.510Z,3.85
2023-05-15T09:29:37.888Z,4.35
2023-05-15T09:32:10.679Z,3.75
2023-05-15T09:34:40.804Z,4.03
2023-05-15T09:37:11.698Z,3.80
2023-05-15T09:39:44.274Z,4.50
2023-05-15T09:42:14.965Z,4.03
2023-05-15T09:44:44.287Z,3.92
2023-05-15T09:47:17.687Z,3.83
2023-05-15T09:49:47.139Z,4.43
2023-05-15T09:52:16.470Z,3.65
2023-05-15T09:54:49.483Z,4.40
2023-05-15T09:57:22.539Z,4.20
2023-05-15T09:59:50.665Z,4.20
2023-05-15T10:02:32.752Z,3.70
2023-05-15T10:05:01.329Z,4.50
2023-05-15T10:07:31.612Z,5.05
2023-05-15T10:10:01.315Z,4.25
2023-05-15T10:12:32.561Z,4.65
2023-05-15T10:15:01.839Z,3.97
2023-05-15T10:17:33.371Z,3.60
2023-05-15T10:20:02.636Z,4.07
2023-05-15T10:22:35.686Z,4.15
2023-05-15T10:25:08.914Z,3.92
2023-05-15T10:27:40.634Z,4.07
2023-05-15T10:30:12.662Z,4.47
2023-05-15T10:32:42.223Z,3.97
2023-05-15T10:35:11.101Z,4.03
2023-05-15T10:37:42.149Z,3.67
2023-05-15T10:40:11.305Z,3.30
2023-05-15T10:42:43.473Z,3.10
2023-05-15T10:45:11.995Z,2.92
2023-05-15T10:47:45.665Z,3.28
2023-05-15T10:50:15.399Z,2.80
2023-05-15T10:52:44.354Z,3.50
2023-05-15T10:55:21.610Z,3.10
2023-05-15T10:57:50.666Z,4.30
2023-05-15T11:00:29.596Z,4.43
2023-05-15T11:02:58.929Z,4.63
2023-05-15T11:05:27.281Z,5.13
2023-05-15T11:08:21.723Z,4.43
2023-05-15T11:10:49.678Z,5.13
2023-05-15T11:13:17.646Z,5.03
2023-05-15T11:15:47.688Z,4.70
2023-05-15T11:18:16.349Z,4.35
2023-05-15T11:20:49.739Z,4.07
2023-05-15T11:23:22.436Z,3.95
2023-05-15T11:25:56.066Z,2.90
2023-05-15T11:28:26.171Z,3.25
2023-05-15T11:31:00.533Z,2.58
2023-05-15T11:33:38.474Z,2.10
2023-05-15T11:36:08.374Z,1.92
2023-05-15T11:38:40.408Z,1.77
2023-05-15T11:41:23.766Z,2.03
2023-05-15T11:43:52.943Z,2.38
2023-05-15T11:46:22.271Z,2.65
2023-05-15T11:48:50.939Z,1.80
2023-05-15T11:51:26.834Z,1.95
2023-05-15T11:53:56.160Z,1.77
2023-05-15T11:56:28.641Z,2.25
2023-05-15T11:59:04.209Z,1.95
2023-05-15T12:01:47.659Z,2.45
2023-05-15T12:04:18.647Z,2.72
2023-05-15T12:06:49.777Z,2.20
2023-05-15T12:09:19.880Z,1.77
2023-05-15T12:11:55.993Z,1.67
2023-05-15T12:14:30.465Z,1.80
2023-05-15T12:17:06.428Z,1.77
2023-05-15T12:19:35.919Z,2.15
2023-05-15T12:22:12.901Z,2.05
2023-05-15T12:24:42.441Z,2.10
2023-05-15T12:27:11.552Z,2.45
2023-05-15T12:29:42.096Z,2.67
2023-05-15T12:32:12.119Z,2.40
2023-05-15T12:34:40.292Z,2.38
2023-05-15T12:37:14.001Z,2.53
2023-05-15T12:39:55.968Z,2.72
2023-05-15T12:42:23.897Z,2.35
2023-05-15T12:44:56.243Z,2.25
2023-05-15T12:47:25.792Z,2.60
2023-05-15T12:49:57.595Z,2.00
2023-05-15T12:52:29.082Z,2.40
2023-05-15T12:55:00.888Z,2.00
2023-05-15T12:57:29.341Z,1.92
2023-05-15T12:59:58.091Z,1.98
2023-05-15T13:02:26.787Z,2.15
2023-05-15T13:04:55.343Z,1.80
2023-05-15T13:07:23.194Z,1.80
2023-05-15T13:10:07.328Z,1.83
2023-05-15T13:12:46.697Z,2.17
2023-05-15T13:15:36.563Z,1.95
2023-05-15T13:18:09.490Z,1.40
2023-05-15T13:20:49.627Z,1.85
2023-05-15T13:23:19.280Z,2.28
2023-05-15T13:25:48.027Z,1.80
2023-05-15T13:28:16.357Z,1.88
2023-05-15T13:30:44.683Z,1.80
2023-05-15T13:33:13.389Z,1.80
2023-05-15T13:35:43.254Z,2.25
2023-05-15T13:38:11.914Z,2.30
2023-05-15T13:40:40.397Z,1.83
2023-05-15T13:43:08.324Z,2.50
2023-05-15T13:45:36.700Z,2.30
2023-05-15T13:48:05.323Z,2.30
2023-05-15T13:50:33.259Z,2.17
2023-05-15T13:53:01.213Z,1.70
2023-05-15T13:55:29.229Z,2.10
2023-05-15T13:57:57.293Z,2.20
2023-05-15T14:00:26.232Z,1.80
2023-05-15T14:02:54.642Z,1.80
2023-05-15T14:05:22.868Z,2.10
2023-05-15T14:07:51.133Z,1.95
2023-05-15T14:10:19.103Z,2.55
2023-05-15T14:12:47.366Z,2.00
2023-05-15T14:15:15.379Z,2.00
2023-05-15T14:17:43.450Z,2.45
2023-05-15T14:20:11.862Z,2.28
2023-05-15T14:22:40.709Z,2.35
2023-05-15T14:25:09.586Z,1.90
2023-05-15T14:27:39.313Z,2.00
2023-05-15T14:30:08.351Z,2.47
2023-05-15T14:32:36.345Z,2.10
2023-05-15T14:35:04.531Z,1.95
2023-05-15T14:37:32.452Z,2.53
2023-05-15T14:40:00.444Z,1.98
2023-05-15T14:42:28.610Z,2.15
2023-05-15T14:44:56.763Z,2.00
2023-05-15T14:47:27.964Z,2.38
2023-05-15T14:49:56.148Z,1.83
2023-05-15T14:52:24.062Z,1.70
2023-05-15T14:55:04.714Z,1.98
2023-05-15T15:00:06.543Z,1.80
2023-05-15T15:02:34.730Z,2.08
2023-05-15T15:05:02.720Z,1.92
2023-05-15T15:07:30.939Z,1.90
2023-05-15T15:09:58.747Z,1.58
2023-05-15T15:12:27.051Z,1.98
2023-05-15T15:14:54.976Z,1.65
2023-05-15T15:17:22.903Z,1.50
2023-05-15T15:19:50.696Z,1.83
2023-05-15T15:22:18.698Z,1.73
2023-05-15T15:24:46.572Z,1.73
2023-05-15T15:27:14.552Z,2.00
2023-05-15T15:29:42.440Z,1.73
2023-05-15T15:32:10.338Z,1.67
2023-05-15T15:34:38.344Z,1.70
2023-05-15T15:37:06.344Z,1.80
2023-05-15T15:39:34.188Z,1.73
2023-05-15T15:42:03.426Z,1.90
2023-05-15T15:44:36.117Z,1.60
2023-05-15T15:47:04.213Z,1.17
2023-05-15T15:49:32.081Z,1.73
2023-05-15T15:51:59.994Z,1.30
2023-05-15T15:54:28.931Z,1.30
2023-05-15T15:56:56.860Z,1.40
2023-05-15T15:59:24.674Z,1.45
2023-05-15T16:01:52.925Z,1.42
2023-05-15T16:04:20.851Z,1.30
2023-05-15T16:06:48.842Z,1.20
2023-05-15T16:09:19.917Z,1.42
2023-05-15T16:11:47.830Z,1.90
2023-05-15T16:14:15.699Z,2.05
2023-05-15T16:16:43.576Z,2.45
2023-05-15T16:19:11.557Z,2.58
2023-05-15T16:21:39.621Z,2.67
2023-05-15T16:24:10.219Z,2.40
2023-05-15T16:26:38.795Z,2.40
2023-05-15T16:29:07.209Z,1.90
2023-05-15T16:31:39.153Z,2.53
2023-05-15T16:34:06.980Z,2.33
2023-05-15T16:36:34.998Z,2.47
2023-05-15T16:39:03.295Z,2.17
2023-05-15T16:41:31.464Z,2.22
2023-05-15T16:43:59.443Z,2.15
2023-05-15T16:46:27.482Z,2.10
2023-05-15T16:48:55.507Z,2.05
2023-05-15T16:51:23.576Z,2.20
2023-05-15T16:53:52.725Z,2.50
2023-05-15T16:56:21.053Z,2.33
2023-05-15T16:58:48.940Z,2.45
2023-05-15T17:01:16.790Z,2.80
2023-05-15T17:03:44.890Z,1.80
2023-05-15T17:06:12.869Z,1.85
2023-05-15T17:08:42.821Z,2.00
2023-05-15T17:11:11.070Z,2.00
2023-05-15T17:13:39.028Z,1.95
2023-05-15T17:16:07.222Z,2.83
2023-05-15T17:18:35.332Z,2.05
2023-05-15T17:21:03.242Z,2.20
2023-05-15T17:23:31.120Z,1.55
2023-05-15T17:25:58.999Z,1.73
2023-05-15T17:28:27.008Z,1.65
2023-05-15T17:30:54.774Z,1.73
2023-05-15T17:33:22.824Z,1.55
2023-05-15T17:35:51.097Z,1.55
2023-05-15T17:38:19.037Z,1.20
2023-05-15T17:40:48.485Z,1.67
2023-05-15T17:43:16.512Z,2.08
2023-05-15T17:45:44.413Z,1.60
2023-05-15T17:48:12.499Z,2.05
2023-05-15T17:50:41.813Z,1.77
2023-05-15T17:53:09.832Z,2.30
2023-05-15T17:55:37.903Z,2.53
2023-05-15T17:58:06.682Z,2.17
2023-05-15T18:00:34.610Z,1.63
2023-05-15T18:03:02.698Z,2.38
2023-05-15T18:05:30.933Z,2.35
2023-05-15T18:08:00.133Z,2.60
2023-05-15T18:10:28.078Z,2.10
2023-05-15T18:12:55.989Z,2.22
2023-05-15T18:15:24.147Z,2.22
2023-05-15T18:17:52.355Z,2.72
2023-05-15T18:20:21.011Z,2.63
2023-05-15T18:22:49.666Z,1.95
2023-05-15T18:25:18.173Z,2.15
2023-05-15T18:27:46.403Z,2.60
2023-05-15T18:30:14.850Z,2.13
2023-05-15T18:32:42.940Z,2.10
2023-05-15T18:35:11.145Z,2.00
2023-05-15T18:37:39.062Z,2.90
2023-05-15T18:40:10.665Z,2.42
2023-05-15T18:42:38.700Z,2.28
2023-05-15T18:45:07.486Z,2.78
2023-05-15T18:47:35.394Z,2.90
2023-05-15T18:50:03.508Z,2.85
2023-05-15T18:52:31.418Z,3.33
2023-05-15T18:54:59.220Z,2.95
2023-05-15T18:57:27.385Z,2.63
2023-05-15T18:59:55.584Z,3.10
2023-05-15T19:02:25.831Z,3.90
2023-05-15T19:04:54.009Z,3.75
2023-05-15T19:07:21.833Z,3.58
2023-05-15T19:09:49.652Z,3.65
2023-05-15T19:12:17.489Z,3.38
2023-05-15T19:14:45.409Z,2.78
2023-05-15T19:17:13.403Z,2.88
2023-05-15T19:19:41.909Z,2.90
2023-05-15T19:22:09.748Z,2.63
2023-05-15T19:24:37.620Z,3.00
2023-05-15T19:27:06.079Z,2.90
2023-05-15T19:29:37.708Z,3.22
2023-05-15T19:32:08.480Z,3.10
2023-05-15T19:34:36.724Z,2.83
2023-05-15T19:37:04.814Z,3.05
2023-05-15T19:39:33.813Z,2.90
2023-05-15T19:42:01.791Z,2.95
2023-05-15T19:44:29.835Z,3.38
2023-05-15T19:46:57.662Z,3.05
2023-05-15T19:49:26.838Z,3.38
2023-05-15T19:51:57.919Z,2.60
2023-05-15T19:54:25.855Z,3.13
2023-05-15T19:56:54.100Z,3.58
2023-05-15T19:59:22.006Z,3.03
2023-05-15T20:01:49.940Z,3.20
2023-05-15T20:04:17.882Z,2.92
2023-05-15T20:06:45.708Z,3.10
2023-05-15T20:09:13.648Z,3.13
2023-05-15T20:11:41.407Z,2.60
2023-05-15T20:14:15.084Z,3.35
2023-05-15T20:16:43.016Z,2.75
2023-05-15T20:19:11.294Z,2.67
2023-05-15T20:21:39.433Z,2.65
2023-05-15T20:24:12.140Z,1.95
2023-05-15T20:26:41.623Z,2.70
2023-05-15T20:29:26.883Z,2.67
2023-05-15T20:32:04.439Z,1.80
2023-05-15T20:34:33.561Z,2.08
2023-05-15T20:37:02.907Z,1.98
2023-05-15T20:39:31.484Z,1.80
2023-05-15T20:41:59.284Z,2.28
2023-05-15T20:44:27.480Z,1.52
2023-05-15T20:46:55.739Z,1.70
2023-05-15T20:49:23.639Z,1.42
2023-05-15T20:51:52.478Z,1.55
2023-05-15T20:54:20.960Z,1.70
2023-05-15T20:56:48.757Z,1.73
2023-05-15T20:59:16.686Z,1.48
2023-05-15T21:01:44.615Z,1.45
2023-05-15T21:04:12.716Z,1.50
2023-05-15T21:06:41.179Z,1.83
2023-05-15T21:09:09.056Z,1.42
2023-05-15T21:11:40.031Z,1.48
2023-05-15T21:14:08.498Z,1.40
2023-05-15T21:16:36.634Z,1.17
2023-05-15T21:19:04.994Z,1.60
2023-05-15T21:21:32.946Z,1.40
2023-05-15T21:24:03.686Z,1.30
2023-05-15T21:26:31.763Z,1.50
2023-05-15T21:28:59.822Z,1.75
2023-05-15T21:31:28.645Z,1.50
2023-05-15T21:33:56.536Z,1.38
2023-05-15T21:36:24.442Z,1.52
2023-05-15T21:38:52.515Z,1.90
2023-05-15T21:41:20.909Z,1.50
2023-05-15T21:43:55.275Z,1.73
2023-05-15T21:46:23.627Z,1.30
2023-05-15T21:48:51.529Z,1.77
2023-05-15T21:51:19.447Z,2.15
2023-05-15T21:53:47.582Z,2.03
2023-05-15T21:56:15.478Z,1.80
2023-05-15T21:58:43.395Z,2.00
2023-05-15T22:01:11.661Z,1.90
2023-05-15T22:03:39.672Z,1.65
2023-05-15T22:06:07.815Z,1.67
2023-05-15T22:08:35.864Z,1.90
2023-05-15T22:11:03.817Z,1.85
2023-05-15T22:13:31.697Z,1.60
2023-05-15T22:15:59.511Z,1.30
2023-05-15T22:18:29.037Z,1.60
2023-05-15T22:20:57.637Z,1.63
2023-05-15T22:23:26.012Z,1.70
2023-05-15T22:25:53.938Z,1.63
2023-05-15T22:28:21.863Z,1.20
2023-05-15T22:30:50.226Z,1.55
2023-05-15T22:33:18.105Z,1.27
2023-05-15T22:35:46.093Z,1.58
2023-05-15T22:38:13.974Z,1.52
2023-05-15T22:40:41.797Z,1.70
2023-05-15T22:43:09.665Z,1.58
2023-05-15T22:45:37.658Z,1.35
2023-05-15T22:48:05.927Z,1.67
2023-05-15T22:50:33.905Z,1.88
2023-05-15T22:53:01.924Z,1.50
2023-05-15T22:55:29.924Z,1.90
2023-05-15T22:57:57.918Z,1.70
2023-05-15T23:00:27.772Z,1.73
2023-05-15T23:02:56.240Z,1.60
2023-05-15T23:05:25.199Z,1.48
2023-05-15T23:07:53.045Z,1.40
2023-05-15T23:10:21.291Z,1.00
2023-05-15T23:12:49.162Z,1.10
2023-05-15T23:15:16.951Z,1.35
2023-05-15T23:17:44.889Z,1.13
2023-05-15T23:20:15.768Z,1.48
2023-05-15T23:22:43.756Z,1.30
2023-05-15T23:25:12.151Z,1.45
2023-05-15T23:27:40.063Z,1.20
2023-05-15T23:30:08.726Z,1.10
2023-05-15T23:32:36.816Z,0.98
2023-05-15T23:35:05.046Z,0.85
2023-05-15T23:37:32.955Z,0.90
2023-05-15T23:40:01.002Z,0.50
2023-05-15T23:42:30.332Z,0.52
2023-05-15T23:44:58.203Z,0.75
2023-05-15T23:47:26.134Z,0.60
2023-05-15T23:49:54.079Z,0.50
2023-05-15T23:52:22.276Z,0.57
2023-05-15T23:54:50.256Z,0.55
2023-05-15T23:57:18.129Z,0.38
2023-05-15T23:59:46.063Z,0.40
